createdAt,value
2019-04-11T00:02:16.411Z,3.99
2019-04-11T00:04:44.206Z,4.03
2019-04-11T00:07:12.057Z,4.02
2019-04-11T00:09:40.796Z,4.06
2019-04-11T00:12:10.413Z,4.00
2019-04-11T00:14:38.136Z,3.96
2019-04-11T00:17:05.848Z,3.99
2019-04-11T00:19:33.634Z,3.91
2019-04-11T00:22:01.490Z,3.88
2019-04-11T00:24:29.271Z,3.81
2019-04-11T00:26:57.264Z,3.85
2019-04-11T00:29:24.568Z,3.78
2019-04-11T00:31:52.780Z,3.86
2019-04-11T00:34:20.620Z,3.81
2019-04-11T00:36:48.495Z,3.73
2019-04-11T00:39:16.381Z,3.72
2019-04-11T00:41:44.322Z,3.65
2019-04-11T00:44:11.696Z,3.49
2019-04-11T00:46:40.509Z,3.55
2019-04-11T00:49:08.251Z,3.48
2019-04-11T00:51:38.526Z,3.59
2019-04-11T00:54:06.703Z,3.40
2019-04-11T00:56:34.654Z,3.43
2019-04-11T00:59:02.486Z,3.35
2019-04-11T01:01:31.518Z,3.38
2019-04-11T01:04:01.367Z,3.34
2019-04-11T01:06:30.017Z,3.18
2019-04-11T01:09:04.284Z,3.30
2019-04-11T01:11:32.115Z,3.14
2019-04-11T01:13:59.644Z,3.31
2019-04-11T01:16:52.730Z,3.26
2019-04-11T01:19:20.513Z,3.24
2019-04-11T01:21:48.786Z,3.25
2019-04-11T01:24:16.322Z,3.17
2019-04-11T01:26:43.982Z,3.15
2019-04-11T01:29:11.461Z,3.00
2019-04-11T01:31:39.910Z,3.07
2019-04-11T01:34:08.498Z,3.00
2019-04-11T01:36:37.313Z,2.99
2019-04-11T01:39:21.469Z,2.97
2019-04-11T01:41:48.880Z,2.81
2019-04-11T01:44:16.523Z,2.94
2019-04-11T01:46:44.435Z,2.82
2019-04-11T01:49:19.797Z,2.74
2019-04-11T01:51:47.632Z,2.73
2019-04-11T01:54:15.339Z,2.65
2019-04-11T01:56:42.816Z,2.61
2019-04-11T01:59:11.032Z,2.66
2019-04-11T02:01:56.973Z,2.57
2019-04-11T02:04:34.173Z,2.63
2019-04-11T02:07:02.526Z,2.55
2019-04-11T02:09:32.441Z,2.52
2019-04-11T02:11:59.896Z,2.57
2019-04-11T02:14:28.006Z,2.52
2019-04-11T02:16:55.593Z,2.41
2019-04-11T02:19:23.870Z,2.52
2019-04-11T02:21:53.769Z,2.46
2019-04-11T02:24:39.777Z,2.48
2019-04-11T02:27:16.894Z,2.52
2019-04-11T02:29:44.818Z,2.42
2019-04-11T02:32:12.841Z,2.38
2019-04-11T02:34:40.347Z,2.34
2019-04-11T02:37:09.156Z,2.36
2019-04-11T02:39:36.472Z,2.22
2019-04-11T02:42:04.179Z,2.18
2019-04-11T02:44:46.149Z,2.17
2019-04-11T02:47:08.346Z,2.20
2019-04-11T02:49:31.202Z,2.32
2019-04-11T02:52:00.841Z,2.26
2019-04-11T02:54:30.439Z,2.16
2019-04-11T02:56:59.872Z,2.21
2019-04-11T02:59:29.310Z,2.14
2019-04-11T03:01:58.190Z,2.17
2019-04-11T03:04:26.995Z,2.16
2019-04-11T03:06:55.427Z,2.11
2019-04-11T03:09:24.160Z,2.16
2019-04-11T03:11:51.773Z,2.22
2019-04-11T03:14:20.745Z,2.17
2019-04-11T03:16:59.013Z,2.07
2019-04-11T03:19:35.171Z,2.10
2019-04-11T03:21:47.546Z,2.08
2019-04-11T03:24:15.563Z,1.98
2019-04-11T03:26:45.569Z,2.03
2019-04-11T03:29:13.526Z,1.96
2019-04-11T03:32:20.413Z,1.95
2019-04-11T03:39:27.763Z,1.83
2019-04-11T03:41:54.652Z,1.87
2019-04-11T03:44:16.638Z,1.78
2019-04-11T03:46:52.440Z,1.80
2019-04-11T03:49:24.018Z,1.75
2019-04-11T03:51:39.293Z,1.79
2019-04-11T03:54:09.612Z,1.63
2019-04-11T03:56:38.900Z,1.58
2019-04-11T03:59:08.443Z,1.64
2019-04-11T04:01:37.979Z,1.63
2019-04-11T04:04:06.610Z,1.63
2019-04-11T04:06:34.541Z,1.64
2019-04-11T04:09:04.237Z,1.56
2019-04-11T04:11:34.258Z,1.61
2019-04-11T04:14:19.842Z,1.53
2019-04-11T04:17:06.950Z,1.50
2019-04-11T04:19:54.478Z,1.44
2019-04-11T04:22:49.623Z,1.47
2019-04-11T04:25:16.654Z,1.46
2019-04-11T04:27:45.067Z,1.40
2019-04-11T04:30:15.422Z,1.33
2019-04-11T04:32:42.946Z,1.36
2019-04-11T04:35:15.637Z,1.34
2019-04-11T04:37:43.128Z,1.36
2019-04-11T04:40:28.319Z,1.36
2019-04-11T04:42:47.766Z,1.16
2019-04-11T04:45:12.385Z,1.20
2019-04-11T04:47:47.790Z,1.20
2019-04-11T04:50:10.899Z,1.23
2019-04-11T04:52:39.004Z,1.17
2019-04-11T04:55:10.695Z,1.19
2019-04-11T04:57:42.938Z,1.29
2019-04-11T05:00:18.869Z,1.26
2019-04-11T05:02:47.905Z,1.26
2019-04-11T05:05:15.759Z,1.38
2019-04-11T05:07:46.300Z,1.29
2019-04-11T05:10:13.463Z,1.36
2019-04-11T05:12:41.818Z,1.43
2019-04-11T05:15:10.072Z,1.43
2019-04-11T05:17:38.686Z,1.32
2019-04-11T05:20:06.982Z,1.40
2019-04-11T05:22:35.221Z,1.47
2019-04-11T05:25:03.891Z,1.51
2019-04-11T05:27:32.177Z,1.49
2019-04-11T05:30:00.709Z,1.53
2019-04-11T05:32:29.189Z,1.55
2019-04-11T05:34:56.624Z,1.62
2019-04-11T05:37:24.401Z,1.63
2019-04-11T05:39:52.522Z,1.77
2019-04-11T05:42:25.016Z,1.81
2019-04-11T05:44:50.020Z,1.94
2019-04-11T05:47:19.711Z,2.03
2019-04-11T05:49:52.693Z,2.08
2019-04-11T05:52:20.002Z,2.12
2019-04-11T05:54:51.073Z,2.21
2019-04-11T05:57:23.730Z,2.28
2019-04-11T05:59:50.918Z,2.46
2019-04-11T06:02:33.209Z,2.54
2019-04-11T06:05:09.024Z,2.78
2019-04-11T06:07:57.540Z,3.19
2019-04-11T06:10:31.016Z,3.87
2019-04-11T06:13:20.937Z,4.48
2019-04-11T06:15:51.398Z,5.08
2019-04-11T06:18:54.349Z,5.73
2019-04-11T06:21:36.628Z,6.44
2019-04-11T06:24:22.296Z,7.03
2019-04-11T06:27:01.619Z,7.54
2019-04-11T06:29:34.858Z,7.90
2019-04-11T06:32:19.564Z,8.42
2019-04-11T06:34:55.967Z,8.76
2019-04-11T06:37:54.275Z,8.63
2019-04-11T06:40:27.679Z,9.14
2019-04-11T06:43:11.911Z,9.53
2019-04-11T06:45:52.428Z,9.83
2019-04-11T06:48:45.582Z,10.18
2019-04-11T06:51:17.229Z,10.59
2019-04-11T06:53:48.483Z,11.18
2019-04-11T06:56:27.310Z,11.58
2019-04-11T06:58:59.608Z,11.58
2019-04-11T07:01:28.385Z,11.57
2019-04-11T07:04:00.849Z,12.03
2019-04-11T07:06:31.413Z,12.37
2019-04-11T07:09:17.149Z,12.48
2019-04-11T07:11:50.750Z,12.73
2019-04-11T07:14:27.530Z,12.61
2019-04-11T07:17:15.442Z,12.83
2019-04-11T07:20:14.530Z,12.57
2019-04-11T07:22:59.874Z,12.78
2019-04-11T07:25:45.127Z,12.71
2019-04-11T07:28:41.680Z,12.95
2019-04-11T07:31:30.067Z,12.93
2019-04-11T07:34:21.179Z,13.05
2019-04-11T07:37:07.418Z,13.49
2019-04-11T07:39:52.921Z,13.88
2019-04-11T07:42:47.279Z,14.30
2019-04-11T07:45:20.965Z,13.61
2019-04-11T07:47:52.694Z,13.42
2019-04-11T07:50:21.252Z,13.51
2019-04-11T07:52:56.098Z,13.96
2019-04-11T07:55:24.365Z,13.87
2019-04-11T07:58:11.587Z,13.07
2019-04-11T08:01:01.653Z,13.20
2019-04-11T08:03:49.685Z,13.02
2019-04-11T08:06:30.977Z,12.75
2019-04-11T08:09:17.671Z,13.19
2019-04-11T08:11:53.276Z,12.92
2019-04-11T08:14:35.246Z,12.56
2019-04-11T08:17:27.028Z,12.65
2019-04-11T08:20:03.553Z,12.37
2019-04-11T08:22:41.412Z,12.19
2019-04-11T08:25:41.884Z,13.00
2019-04-11T08:28:13.860Z,12.87
2019-04-11T08:31:11.664Z,13.25
2019-04-11T08:33:39.106Z,13.35
2019-04-11T08:36:26.153Z,13.60
2019-04-11T08:38:53.419Z,13.08
2019-04-11T08:41:31.637Z,13.39
2019-04-11T08:44:02.141Z,13.76
2019-04-11T08:46:35.118Z,13.89
2019-04-11T08:49:05.656Z,14.27
2019-04-11T08:51:33.614Z,14.51
2019-04-11T08:54:31.411Z,14.28
2019-04-11T08:56:59.170Z,15.12
2019-04-11T08:59:54.531Z,15.54
2019-04-11T09:02:47.694Z,15.65
2019-04-11T09:05:29.134Z,15.94
2019-04-11T09:08:25.192Z,15.49
2019-04-11T09:11:16.970Z,15.80
2019-04-11T09:14:04.257Z,15.70
2019-04-11T09:17:01.774Z,14.98
2019-04-11T09:19:43.690Z,15.46
2019-04-11T09:22:37.284Z,15.29
2019-04-11T09:25:28.961Z,15.80
2019-04-11T09:28:17.832Z,15.60
2019-04-11T09:31:01.234Z,16.08
2019-04-11T09:33:57.606Z,16.47
2019-04-11T09:36:55.442Z,16.93
2019-04-11T09:39:45.518Z,17.14
2019-04-11T09:42:32.427Z,16.95
2019-04-11T09:45:14.161Z,17.53
2019-04-11T09:48:13.849Z,17.23
2019-04-11T09:50:56.673Z,17.37
2019-04-11T09:53:28.190Z,17.32
2019-04-11T09:56:13.095Z,17.08
2019-04-11T09:58:42.118Z,16.75
2019-04-11T10:01:35.259Z,16.51
2019-04-11T10:04:03.688Z,16.59
2019-04-11T10:07:01.692Z,16.18
2019-04-11T10:09:44.594Z,15.56
2019-04-11T10:12:31.846Z,15.65
2019-04-11T10:14:59.773Z,16.07
2019-04-11T10:17:46.639Z,15.99
2019-04-11T10:20:16.180Z,15.51
2019-04-11T10:23:01.422Z,15.94
2019-04-11T10:25:32.107Z,15.91
2019-04-11T10:28:25.363Z,16.04
2019-04-11T10:31:12.634Z,16.16
2019-04-11T10:33:53.204Z,16.00
2019-04-11T10:36:25.390Z,16.50
2019-04-11T10:39:05.843Z,17.06
2019-04-11T10:41:35.272Z,16.88
2019-04-11T10:44:03.338Z,17.37
2019-04-11T10:46:44.517Z,17.81
2019-04-11T10:49:20.451Z,18.35
2019-04-11T10:51:58.195Z,18.82
2019-04-11T10:54:26.078Z,18.86
2019-04-11T10:57:11.929Z,19.29
2019-04-11T10:59:40.699Z,19.84
2019-04-11T11:02:31.656Z,19.81
2019-04-11T11:04:59.121Z,20.29
2019-04-11T11:07:29.290Z,21.11
2019-04-11T11:10:03.198Z,21.04
2019-04-11T11:13:08.075Z,21.20
2019-04-11T11:15:47.925Z,21.40
2019-04-11T11:19:03.658Z,21.58
2019-04-11T11:21:14.337Z,22.01
2019-04-11T11:24:00.690Z,22.09
2019-04-11T11:26:33.859Z,22.26
2019-04-11T11:29:15.150Z,21.68
2019-04-11T11:32:00.803Z,21.94
2019-04-11T11:34:51.271Z,22.18
2019-04-11T11:37:35.462Z,22.30
2019-04-11T11:40:29.999Z,22.24
2019-04-11T11:43:29.204Z,22.11
2019-04-11T11:46:29.786Z,22.12
2019-04-11T11:49:05.823Z,22.15
2019-04-11T11:52:08.931Z,21.70
2019-04-11T11:54:40.353Z,21.48
2019-04-11T11:57:11.404Z,21.65
2019-04-11T11:59:52.394Z,21.97
2019-04-11T12:02:24.335Z,21.71
2019-04-11T12:05:12.458Z,21.77
2019-04-11T12:07:49.556Z,21.30
2019-04-11T12:10:35.527Z,21.65
2019-04-11T12:13:23.139Z,20.74
2019-04-11T12:16:01.625Z,20.65
2019-04-11T12:18:47.194Z,19.74
2019-04-11T12:21:16.324Z,20.34
2019-04-11T12:24:06.099Z,20.40
2019-04-11T12:26:34.308Z,20.09
2019-04-11T12:29:36.428Z,20.14
2019-04-11T12:32:06.258Z,19.92
2019-04-11T12:34:38.791Z,19.90
2019-04-11T12:37:10.546Z,19.81
2019-04-11T12:40:15.855Z,19.45
2019-04-11T12:42:43.298Z,19.46
2019-04-11T12:45:36.547Z,19.25
2019-04-11T12:48:04.031Z,19.32
2019-04-11T12:50:49.532Z,19.26
2019-04-11T12:53:18.719Z,18.76
2019-04-11T12:56:06.950Z,18.89
2019-04-11T12:58:56.319Z,18.92
2019-04-11T13:01:55.500Z,18.79
2019-04-11T13:04:29.946Z,18.85
2019-04-11T13:07:16.859Z,18.18
2019-04-11T13:09:50.329Z,17.98
2019-04-11T13:12:35.084Z,17.82
2019-04-11T13:15:14.639Z,17.83
2019-04-11T13:17:45.960Z,17.54
2019-04-11T13:20:47.821Z,16.96
2019-04-11T13:23:43.625Z,17.08
2019-04-11T13:26:29.683Z,16.68
2019-04-11T13:29:09.652Z,16.72
2019-04-11T13:32:02.666Z,16.51
2019-04-11T13:34:29.847Z,15.83
2019-04-11T13:37:15.240Z,15.40
2019-04-11T13:39:46.664Z,15.34
2019-04-11T13:42:39.593Z,15.09
2019-04-11T13:45:10.127Z,15.25
2019-04-11T13:47:59.669Z,15.05
2019-04-11T13:50:27.616Z,14.90
2019-04-11T13:53:20.267Z,14.70
2019-04-11T13:55:47.517Z,14.53
2019-04-11T13:58:40.382Z,14.08
2019-04-11T14:01:10.722Z,14.01
2019-04-11T14:03:57.987Z,13.96
2019-04-11T14:06:27.191Z,13.89
2019-04-11T14:09:17.161Z,13.80
2019-04-11T14:11:49.629Z,13.79
2019-04-11T14:14:36.561Z,13.84
2019-04-11T14:17:21.767Z,13.73
2019-04-11T14:20:08.840Z,13.68
2019-04-11T14:23:02.336Z,13.60
2019-04-11T14:25:48.166Z,13.59
2019-04-11T14:28:15.828Z,13.41
2019-04-11T14:30:52.576Z,13.47
2019-04-11T14:33:23.575Z,13.49
2019-04-11T14:36:07.514Z,13.60
2019-04-11T14:38:45.621Z,13.38
2019-04-11T14:41:32.702Z,13.34
2019-04-11T14:44:01.813Z,13.28
2019-04-11T14:46:47.989Z,13.15
2019-04-11T14:49:16.490Z,13.17
2019-04-11T14:52:02.324Z,13.14
2019-04-11T14:54:35.262Z,13.17
2019-04-11T14:57:10.480Z,13.22
2019-04-11T14:59:43.900Z,13.18
2019-04-11T15:02:25.686Z,12.93
2019-04-11T15:07:43.766Z,12.80
2019-04-11T15:10:30.147Z,12.73
2019-04-11T15:12:57.403Z,12.90
2019-04-11T15:15:33.655Z,12.87
2019-04-11T15:18:02.564Z,12.73
2019-04-11T15:21:01.461Z,12.80
2019-04-11T15:23:31.356Z,12.78
2019-04-11T15:26:24.063Z,12.72
2019-04-11T15:28:54.094Z,12.69
2019-04-11T15:31:58.931Z,12.86
2019-04-11T15:34:52.900Z,12.79
2019-04-11T15:37:57.928Z,12.80
2019-04-11T15:40:46.673Z,12.77
2019-04-11T15:43:42.126Z,12.46
2019-04-11T15:46:12.083Z,12.58
2019-04-11T15:49:01.669Z,12.30
2019-04-11T15:51:43.168Z,12.27
2019-04-11T15:54:34.811Z,12.40
2019-04-11T15:57:12.208Z,12.55
2019-04-11T15:59:57.800Z,12.37
2019-04-11T16:02:37.258Z,12.17
2019-04-11T16:05:22.608Z,12.10
2019-04-11T16:08:15.882Z,12.12
2019-04-11T16:10:49.951Z,12.23
2019-04-11T16:13:29.517Z,11.94
2019-04-11T16:16:06.423Z,11.86
2019-04-11T16:18:49.497Z,11.93
2019-04-11T16:21:23.945Z,12.03
2019-04-11T16:23:59.789Z,11.76
2019-04-11T16:26:37.397Z,11.80
2019-04-11T16:29:18.352Z,11.57
2019-04-11T16:31:46.159Z,11.54
2019-04-11T16:34:30.893Z,11.58
2019-04-11T16:37:01.003Z,11.49
2019-04-11T16:39:55.162Z,11.50
2019-04-11T16:42:35.118Z,11.32
2019-04-11T16:45:24.996Z,11.38
2019-04-11T16:48:12.023Z,11.33
2019-04-11T16:50:39.512Z,11.25
2019-04-11T16:53:10.540Z,11.24
2019-04-11T16:55:36.863Z,11.24
2019-04-11T16:58:04.921Z,11.32
2019-04-11T17:00:32.445Z,11.16
2019-04-11T17:02:59.692Z,11.19
2019-04-11T17:05:27.084Z,10.99
2019-04-11T17:08:03.894Z,11.03
2019-04-11T17:10:49.498Z,10.83
2019-04-11T17:13:16.875Z,10.76
2019-04-11T17:15:44.332Z,10.68
2019-04-11T17:18:11.495Z,10.68
2019-04-11T17:20:39.700Z,10.62
2019-04-11T17:23:07.379Z,10.50
2019-04-11T17:25:35.588Z,10.23
2019-04-11T17:28:03.190Z,10.37
2019-04-11T17:30:30.788Z,10.23
2019-04-11T17:32:58.551Z,10.14
2019-04-11T17:35:26.025Z,10.10
2019-04-11T17:37:54.655Z,9.94
2019-04-11T17:40:23.974Z,9.99
2019-04-11T17:42:51.922Z,9.99
2019-04-11T17:45:21.083Z,9.99
2019-04-11T17:47:48.403Z,9.84
2019-04-11T17:50:16.768Z,9.89
2019-04-11T17:52:43.997Z,9.58
2019-04-11T17:55:11.491Z,9.54
2019-04-11T17:57:39.381Z,9.37
2019-04-11T18:00:11.525Z,9.39
2019-04-11T18:02:41.274Z,9.19
2019-04-11T18:05:08.886Z,8.99
2019-04-11T18:07:37.461Z,9.16
2019-04-11T18:10:05.472Z,9.05
2019-04-11T18:12:32.721Z,8.93
2019-04-11T18:15:02.254Z,8.66
2019-04-11T18:17:29.162Z,8.47
2019-04-11T18:19:56.433Z,8.52
2019-04-11T18:22:23.779Z,8.27
2019-04-11T18:24:50.949Z,8.34
2019-04-11T18:27:21.536Z,8.37
2019-04-11T18:29:47.855Z,8.18
2019-04-11T18:32:15.212Z,8.32
2019-04-11T18:34:42.492Z,8.01
2019-04-11T18:37:09.978Z,8.12
2019-04-11T18:39:37.145Z,7.75
2019-04-11T18:42:04.890Z,7.88
2019-04-11T18:44:32.151Z,7.87
2019-04-11T18:46:59.640Z,7.67
2019-04-11T18:49:27.128Z,7.57
2019-04-11T18:51:54.412Z,7.58
2019-04-11T18:54:21.823Z,7.66
2019-04-11T18:56:49.142Z,7.48
2019-04-11T18:59:16.717Z,7.45
2019-04-11T19:01:43.989Z,7.25
2019-04-11T19:04:12.038Z,7.28
2019-04-11T19:06:42.508Z,7.29
2019-04-11T19:09:14.203Z,7.15
2019-04-11T19:11:41.346Z,7.08
2019-04-11T19:14:08.851Z,7.04
2019-04-11T19:16:36.110Z,6.97
2019-04-11T19:19:03.761Z,7.02
2019-04-11T19:21:31.267Z,6.92
2019-04-11T19:23:58.660Z,6.86
2019-04-11T19:26:26.034Z,6.93
2019-04-11T19:28:55.126Z,6.87
2019-04-11T19:31:22.550Z,6.75
2019-04-11T19:33:49.924Z,6.81
2019-04-11T19:36:17.174Z,6.78
2019-04-11T19:38:44.560Z,6.50
2019-04-11T19:41:12.012Z,6.50
2019-04-11T19:43:40.848Z,6.40
2019-04-11T19:46:08.174Z,6.47
2019-04-11T19:48:35.546Z,6.32
2019-04-11T19:51:02.931Z,6.22
2019-04-11T19:53:32.725Z,6.27
2019-04-11T19:56:13.408Z,6.22
2019-04-11T19:58:40.671Z,6.19
2019-04-11T20:01:08.765Z,6.08
2019-04-11T20:03:35.939Z,6.05
2019-04-11T20:06:03.614Z,6.02
2019-04-11T20:08:31.158Z,5.94
2019-04-11T20:11:00.998Z,5.88
2019-04-11T20:13:32.022Z,5.77
2019-04-11T20:15:58.367Z,5.66
2019-04-11T20:18:30.875Z,5.68
2019-04-11T20:20:58.111Z,5.61
2019-04-11T20:23:25.384Z,5.66
2019-04-11T20:25:52.681Z,5.56
2019-04-11T20:28:20.851Z,5.56
2019-04-11T20:30:48.150Z,5.54
2019-04-11T20:33:26.336Z,5.34
2019-04-11T20:35:47.835Z,5.31
2019-04-11T20:38:18.915Z,5.37
2019-04-11T20:40:52.110Z,5.33
2019-04-11T20:43:18.230Z,5.19
2019-04-11T20:45:45.373Z,5.22
2019-04-11T20:48:12.775Z,5.13
2019-04-11T20:50:39.919Z,5.13
2019-04-11T20:53:12.643Z,5.09
2019-04-11T20:55:39.055Z,5.06
2019-04-11T20:58:09.809Z,4.88
2019-04-11T21:00:35.182Z,5.04
2019-04-11T21:03:02.556Z,4.93
2019-04-11T21:05:30.986Z,4.85
2019-04-11T21:08:03.095Z,4.85
2019-04-11T21:10:31.924Z,4.67
2019-04-11T21:12:59.091Z,4.78
2019-04-11T21:15:26.258Z,4.73
2019-04-11T21:17:56.109Z,4.58
2019-04-11T21:20:23.867Z,4.68
2019-04-11T21:22:53.879Z,4.60
2019-04-11T21:25:20.972Z,4.47
2019-04-11T21:27:48.239Z,4.38
2019-04-11T21:30:15.829Z,4.28
2019-04-11T21:32:43.035Z,4.31
2019-04-11T21:35:10.505Z,4.23
2019-04-11T21:37:37.777Z,4.24
2019-04-11T21:40:05.697Z,4.13
2019-04-11T21:42:35.845Z,4.02
2019-04-11T21:45:05.955Z,4.03
2019-04-11T21:47:39.440Z,4.07
2019-04-11T21:50:09.603Z,3.92
2019-04-11T21:52:37.313Z,3.84
2019-04-11T21:55:04.898Z,3.92
2019-04-11T21:57:32.251Z,3.93
2019-04-11T22:00:01.551Z,3.76
2019-04-11T22:02:29.017Z,3.63
2019-04-11T22:04:58.503Z,3.70
2019-04-11T22:07:25.664Z,3.53
2019-04-11T22:09:52.947Z,3.50
2019-04-11T22:12:27.338Z,3.49
2019-04-11T22:14:54.683Z,3.48
2019-04-11T22:17:21.942Z,3.40
2019-04-11T22:19:49.314Z,3.40
2019-04-11T22:22:16.559Z,3.37
2019-04-11T22:24:43.716Z,3.27
2019-04-11T22:27:11.102Z,3.19
2019-04-11T22:29:38.472Z,3.07
2019-04-11T22:32:06.051Z,3.02
2019-04-11T22:34:46.151Z,3.12
2019-04-11T22:37:13.612Z,2.97
2019-04-11T22:39:40.967Z,2.86
2019-04-11T22:42:08.597Z,2.73
2019-04-11T22:44:38.006Z,2.74
2019-04-11T22:47:07.603Z,2.73
2019-04-11T22:49:36.752Z,2.68
2019-04-11T22:52:03.959Z,2.62
2019-04-11T22:54:31.102Z,2.65
2019-04-11T22:56:58.736Z,2.40
2019-04-11T22:59:25.909Z,2.52
2019-04-11T23:01:55.866Z,2.39
2019-04-11T23:04:23.227Z,2.51
2019-04-11T23:06:50.489Z,2.32
2019-04-11T23:09:19.495Z,2.30
2019-04-11T23:11:46.739Z,2.28
2019-04-11T23:14:15.968Z,2.24
2019-04-11T23:16:44.174Z,2.15
2019-04-11T23:19:14.297Z,2.14
2019-04-11T23:21:42.203Z,2.05
2019-04-11T23:24:12.055Z,2.00
2019-04-11T23:26:38.739Z,2.01
2019-04-11T23:29:06.205Z,2.08
2019-04-11T23:31:36.524Z,1.93
2019-04-11T23:34:04.846Z,1.96
2019-04-11T23:36:32.359Z,1.86
2019-04-11T23:38:59.599Z,1.84
2019-04-11T23:41:26.974Z,1.70
2019-04-11T23:43:54.337Z,1.69
2019-04-11T23:46:22.071Z,1.71
2019-04-11T23:48:54.703Z,1.78
2019-04-11T23:51:18.748Z,1.65
2019-04-11T23:53:45.926Z,1.64
2019-04-11T23:56:13.201Z,1.39
2019-04-11T23:58:40.637Z,1.50
